Lake Charles, LA

12:57 PM CDT on May 24, 2017 (GMT -0500)
MAS610 | | Change Station
Active Advisory: Flood Warning

Elev 521 ft 32.29 °N, 95.31 °W | Updated 7 days ago

Partly Cloudy
Partly Cloudy
85.0 °F
Feels Like 89 °F
N
1.0
Wind Variable Wind from South
Gusts 3.0 mph

Today
High -- | Low -- °F
--% Chance of Precip.
Yesterday
High -- | Low -- °F
Precip. -- in
Pressure 29.79 in
Visibility 10.0 miles
Clouds Scattered Clouds 6500 ft
Heat Index 89 °F
Dew Point 70.0 °F
Humidity 60%
Rainfall 0.08 in
Snow Depth Not available.
6:14 AM 8:04 PM
Waning Crescent, 2% visible
METAR KLCH 241753Z 32017G24KT 10SM SCT065 25/10 A2977 RMK AO2 SLP088 T02500100 10250 20167 58009
Pressure 29.79 in
Visibility 10.0 miles
Clouds Scattered Clouds 6500 ft
Heat Index 89 °F
Dew Point 70.0 °F
Humidity 60%
Rainfall 0.08 in
Snow Depth Not available.
6:14 AM 8:04 PM
Waning Crescent, 2% visible
METAR KLCH 241753Z 32017G24KT 10SM SCT065 25/10 A2977 RMK AO2 SLP088 T02500100 10250 20167 58009

Get Your Daily Forecast Email!

Thanks for signing up!

Be on the lookout for a verification email in your inbox.

You'll start receiving severe weather alerts in your inbox..

×

10-Day Weather Forecast

Almanac

Astronomy

May. 24, 2017 Rise Set
Actual Time
Civil Twilight
Nautical Twilight
Astronomical Twilight
Moon
Length of Visible Light
Length of Day
Tomorrow will be .
, % of the Moon is Illuminated

Today's Extremes

State Highs State Lows

Community

WunderPhotos

Category 6

Welcome to Category 6. This is the collective home for Weather Underground's featured writeups by Dr. Jeff Masters (right), Bob Henson (left), Chris Burt, and other regular contributors.

Nearby

Air Quality

  Air Quality AQ Index Pollutant
Not available.

Snow Depth

Station Depth Elevation

Earthquake Activity

City Distance Mag. Time & Date
Minimum magnitude displayed is 2.5.

Coastal Water Temperatures

Place Temperature

Stations

Nearby Weather Stations

Station Location Temp. Windchill Dew Point Humidity Wind Precip. Elev Updated Type
                   

Watches & Warnings

Flood Warning
Issued: 10:57 AM CDT May. 24, 2017 – National Weather Service

The Flood Warning continues for
the Calcasieu River at Old Town Bay.
* Until further notice... or until the warning is cancelled.
* At 5:00 am Wednesday the stage was 3.5 feet.
* Minor flooding is forecast.
* Flood stage is 4.0 feet.
* Forecast... rise above flood stage by late this morning and continue
to rise to near 4.5 feet by tomorrow morning. Additional rises are
possible thereafter.
* Impact... at stages near 5.0 feet... water over lowest portions of
goos Ferry Road. Cars should be moved to higher ground.
* Impact... at stages near 4.0 feet... minor flooding of goos Ferry
Road will occur.
* Impact... at stages near 3.5 feet... ponding of water on low spots
along goos Ferry Road will occur.


Lat... Lon 3038 9314 3031 9303 3025 9308 3019 9321 3030 9329